createdAt,value
2019-03-22T00:02:00.057Z,-0.17
2019-03-22T00:04:29.960Z,-0.22
2019-03-22T00:06:59.938Z,-0.29
2019-03-22T00:09:29.832Z,-0.22
2019-03-22T00:11:59.705Z,-0.20
2019-03-22T00:14:29.684Z,-0.22
2019-03-22T00:16:59.656Z,-0.30
2019-03-22T00:19:29.515Z,-0.29
2019-03-22T00:21:59.428Z,-0.28
2019-03-22T00:24:29.351Z,-0.25
2019-03-22T00:26:59.219Z,-0.25
2019-03-22T00:29:29.170Z,-0.27
2019-03-22T00:31:59.044Z,-0.25
2019-03-22T00:34:29.085Z,-0.27
2019-03-22T00:36:59.019Z,-0.21
2019-03-22T00:39:28.976Z,-0.21
2019-03-22T00:41:58.956Z,-0.31
2019-03-22T00:44:28.808Z,-0.38
2019-03-22T00:46:58.689Z,-0.41
2019-03-22T00:49:28.639Z,-0.35
2019-03-22T00:51:58.489Z,-0.30
2019-03-22T00:54:28.406Z,-0.36
2019-03-22T00:56:58.330Z,-0.37
2019-03-22T00:59:28.416Z,-0.38
2019-03-22T01:01:58.288Z,-0.42
2019-03-22T01:04:28.208Z,-0.47
2019-03-22T01:06:58.135Z,-0.51
2019-03-22T01:09:28.123Z,-0.62
2019-03-22T01:11:58.039Z,-0.63
2019-03-22T01:14:27.930Z,-0.61
2019-03-22T01:16:57.863Z,-0.66
2019-03-22T01:19:27.742Z,-0.63
2019-03-22T01:21:57.623Z,-0.55
2019-03-22T01:24:27.499Z,-0.53
2019-03-22T01:26:57.399Z,-0.51
2019-03-22T01:29:27.310Z,-0.53
2019-03-22T01:31:57.238Z,-0.55
2019-03-22T01:34:27.107Z,-0.55
2019-03-22T01:36:57.026Z,-0.59
2019-03-22T01:39:27.269Z,-0.64
2019-03-22T01:41:57.171Z,-0.60
2019-03-22T01:44:27.065Z,-0.58
2019-03-22T01:46:57.020Z,-0.59
2019-03-22T01:49:26.865Z,-0.55
2019-03-22T01:51:56.777Z,-0.59
2019-03-22T01:54:26.713Z,-0.65
2019-03-22T01:56:56.797Z,-2.21
2019-03-22T01:59:26.653Z,-0.71
2019-03-22T02:01:56.695Z,-0.76
2019-03-22T02:04:26.652Z,-0.87
2019-03-22T02:06:56.572Z,-0.92
2019-03-22T02:09:26.557Z,-0.96
2019-03-22T02:11:56.563Z,-0.95
2019-03-22T02:14:26.565Z,-0.98
2019-03-22T02:16:56.566Z,-0.97
2019-03-22T02:19:26.477Z,-0.88
2019-03-22T02:21:56.330Z,-0.83
2019-03-22T02:24:26.326Z,-0.80
2019-03-22T02:26:56.303Z,-0.82
2019-03-22T02:29:26.213Z,-0.82
2019-03-22T02:31:56.240Z,-0.86
2019-03-22T02:34:26.198Z,-0.92
2019-03-22T02:36:56.090Z,-0.94
2019-03-22T02:39:26.101Z,-0.91
2019-03-22T02:41:55.979Z,-0.85
2019-03-22T02:44:25.965Z,-0.91
2019-03-22T02:46:55.884Z,-0.96
2019-03-22T02:49:25.806Z,-0.93
2019-03-22T02:51:55.671Z,-0.93
2019-03-22T02:54:25.578Z,-0.92
2019-03-22T02:56:55.562Z,-0.92
2019-03-22T02:59:25.475Z,-0.93
2019-03-22T03:01:55.425Z,-0.89
2019-03-22T03:04:25.297Z,-0.93
2019-03-22T03:06:55.243Z,-0.98
2019-03-22T03:09:25.224Z,-1.02
2019-03-22T03:11:55.103Z,-1.07
2019-03-22T03:14:25.037Z,-1.10
2019-03-22T03:16:54.963Z,-1.07
2019-03-22T03:19:24.899Z,-1.09
2019-03-22T03:21:54.770Z,-1.07
2019-03-22T03:24:24.705Z,-1.05
2019-03-22T03:26:54.624Z,-1.10
2019-03-22T03:29:24.506Z,-1.12
2019-03-22T03:31:54.468Z,-1.14
2019-03-22T03:34:24.415Z,-1.19
2019-03-22T03:36:54.332Z,-1.25
2019-03-22T03:39:24.220Z,-1.27
2019-03-22T03:41:54.198Z,-1.38
2019-03-22T03:44:24.035Z,-1.47
2019-03-22T03:46:53.965Z,-1.51
2019-03-22T03:49:23.960Z,-1.55
2019-03-22T03:51:53.858Z,-1.52
2019-03-22T03:54:23.744Z,-1.58
2019-03-22T03:56:53.683Z,-1.58
2019-03-22T03:59:23.571Z,-1.55
2019-03-22T04:01:53.455Z,-1.53
2019-03-22T04:04:23.354Z,-1.50
2019-03-22T04:06:53.272Z,-1.52
2019-03-22T04:09:23.194Z,-1.55
2019-03-22T04:11:53.085Z,-1.65
2019-03-22T04:14:23.035Z,-1.72
2019-03-22T04:16:52.995Z,-1.79
2019-03-22T04:19:22.893Z,-1.77
2019-03-22T04:21:52.819Z,-1.78
2019-03-22T04:24:22.694Z,-1.78
2019-03-22T04:26:52.609Z,-1.79
2019-03-22T04:29:22.846Z,-1.79
2019-03-22T04:31:52.717Z,-1.79
2019-03-22T04:34:22.597Z,-1.78
2019-03-22T04:36:52.596Z,-1.81
2019-03-22T04:39:22.568Z,-1.77
2019-03-22T04:41:52.440Z,-1.72
2019-03-22T04:44:22.400Z,-1.74
2019-03-22T04:46:52.767Z,-1.70
2019-03-22T04:49:23.892Z,-1.70
2019-03-22T04:51:55.305Z,-1.69
2019-03-22T04:54:27.315Z,-1.75
2019-03-22T04:56:59.245Z,-1.72
2019-03-22T04:59:29.832Z,-1.69
2019-03-22T05:02:02.245Z,-1.61
2019-03-22T05:04:32.522Z,-1.56
2019-03-22T05:07:02.851Z,-1.52
2019-03-22T05:09:35.514Z,-1.50
2019-03-22T05:12:06.337Z,-1.48
2019-03-22T05:14:39.267Z,-1.44
2019-03-22T05:17:10.376Z,-1.40
2019-03-22T05:19:43.899Z,-1.34
2019-03-22T05:22:15.702Z,-1.27
2019-03-22T05:24:48.081Z,-1.21
2019-03-22T05:27:20.228Z,-1.09
2019-03-22T05:29:51.661Z,-0.75
2019-03-22T05:32:22.314Z,0.42
2019-03-22T05:34:52.210Z,0.68
2019-03-22T05:37:22.145Z,0.71
2019-03-22T05:39:52.017Z,0.73
2019-03-22T05:42:22.180Z,0.67
2019-03-22T05:44:52.020Z,0.75
2019-03-22T05:47:21.917Z,0.97
2019-03-22T05:49:52.158Z,1.18
2019-03-22T05:52:22.084Z,1.21
2019-03-22T05:54:51.979Z,1.35
2019-03-22T05:57:21.897Z,1.34
2019-03-22T05:59:51.839Z,1.39
2019-03-22T06:02:21.696Z,1.46
2019-03-22T06:04:51.745Z,1.51
2019-03-22T06:07:21.761Z,1.49
2019-03-22T06:09:51.683Z,2.01
2019-03-22T06:12:21.685Z,2.65
2019-03-22T06:14:51.557Z,3.35
2019-03-22T06:17:21.593Z,3.65
2019-03-22T06:19:51.476Z,4.37
2019-03-22T06:22:21.478Z,5.29
2019-03-22T06:24:51.446Z,6.59
2019-03-22T06:27:21.340Z,6.47
2019-03-22T06:29:54.561Z,7.01
2019-03-22T06:32:23.024Z,8.77
2019-03-22T06:34:52.923Z,10.72
2019-03-22T06:37:22.856Z,11.39
2019-03-22T06:39:52.798Z,11.73
2019-03-22T06:42:22.706Z,12.83
2019-03-22T06:44:52.705Z,13.47
2019-03-22T06:47:22.640Z,13.99
2019-03-22T06:49:52.488Z,14.58
2019-03-22T06:52:22.416Z,14.72
2019-03-22T06:54:52.353Z,14.96
2019-03-22T06:57:22.302Z,15.50
2019-03-22T06:59:52.202Z,15.92
2019-03-22T07:02:22.207Z,15.90
2019-03-22T07:04:52.102Z,15.82
2019-03-22T07:07:22.069Z,16.26
2019-03-22T07:09:52.056Z,15.99
2019-03-22T07:12:22.096Z,15.71
2019-03-22T07:14:52.132Z,16.36
2019-03-22T07:17:22.414Z,16.70
2019-03-22T07:19:52.463Z,16.07
2019-03-22T07:22:22.435Z,15.72
2019-03-22T07:24:52.495Z,15.55
2019-03-22T07:27:22.560Z,16.26
2019-03-22T07:29:52.427Z,16.00
2019-03-22T07:32:22.481Z,16.29
2019-03-22T07:34:52.396Z,16.72
2019-03-22T07:37:22.291Z,17.59
2019-03-22T07:39:52.196Z,17.89
2019-03-22T07:42:22.159Z,17.90
2019-03-22T07:44:52.057Z,18.65
2019-03-22T07:47:22.132Z,17.74
2019-03-22T07:49:52.052Z,19.26
2019-03-22T07:52:22.268Z,18.90
2019-03-22T07:54:52.204Z,19.99
2019-03-22T07:57:22.195Z,19.96
2019-03-22T07:59:52.072Z,19.93
2019-03-22T08:02:22.013Z,19.68
2019-03-22T08:04:51.903Z,19.54
2019-03-22T08:07:21.894Z,20.60
2019-03-22T08:09:51.853Z,21.03
2019-03-22T08:12:21.789Z,20.34
2019-03-22T08:14:51.701Z,20.95
2019-03-22T08:17:22.168Z,21.04
2019-03-22T08:19:52.070Z,20.72
2019-03-22T08:22:21.992Z,20.91
2019-03-22T08:24:51.964Z,20.25
2019-03-22T08:27:21.977Z,21.25
2019-03-22T08:29:51.960Z,21.77
2019-03-22T08:32:22.094Z,21.90
2019-03-22T08:34:51.986Z,21.92
2019-03-22T08:37:21.962Z,22.87
2019-03-22T08:39:51.878Z,23.68
2019-03-22T08:42:21.840Z,22.46
2019-03-22T08:44:51.699Z,23.65
2019-03-22T08:47:33.114Z,24.84
2019-03-22T08:49:53.274Z,23.51
2019-03-22T08:52:23.305Z,23.24
2019-03-22T08:54:53.240Z,23.28
2019-03-22T08:57:24.978Z,24.85
2019-03-22T08:59:55.191Z,24.68
2019-03-22T09:02:25.112Z,24.45
2019-03-22T09:04:55.007Z,24.48
2019-03-22T09:07:25.138Z,24.97
2019-03-22T09:09:55.062Z,25.04
2019-03-22T09:12:26.900Z,24.17
2019-03-22T09:14:56.575Z,24.17
2019-03-22T09:17:27.523Z,23.50
2019-03-22T09:19:57.396Z,24.62
2019-03-22T09:22:27.336Z,24.45
2019-03-22T09:24:57.320Z,23.77
2019-03-22T09:27:27.174Z,25.41
2019-03-22T09:29:57.082Z,24.89
2019-03-22T09:32:26.994Z,25.10
2019-03-22T09:34:59.649Z,24.04
2019-03-22T09:37:28.455Z,25.57
2019-03-22T09:39:58.490Z,24.48
2019-03-22T09:42:28.362Z,23.43
2019-03-22T09:44:58.227Z,24.50
2019-03-22T09:47:28.186Z,25.25
2019-03-22T09:49:58.100Z,25.65
2019-03-22T09:52:27.974Z,24.47
2019-03-22T09:54:58.085Z,21.24
2019-03-22T09:57:27.992Z,22.62
2019-03-22T09:59:57.873Z,23.04
2019-03-22T10:02:27.990Z,24.27
2019-03-22T10:04:57.874Z,22.21
2019-03-22T10:07:27.854Z,22.20
2019-03-22T10:09:58.007Z,24.41
2019-03-22T10:12:27.954Z,25.46
2019-03-22T10:14:58.059Z,23.56
2019-03-22T10:17:28.005Z,23.91
2019-03-22T10:19:57.966Z,22.52
2019-03-22T10:22:27.842Z,21.42
2019-03-22T10:24:57.963Z,22.81
2019-03-22T10:27:27.901Z,22.51
2019-03-22T10:29:57.914Z,21.24
2019-03-22T10:32:27.890Z,22.44
2019-03-22T10:34:57.829Z,23.33
2019-03-22T10:37:27.742Z,24.13
2019-03-22T10:39:57.756Z,20.78
2019-03-22T10:42:27.795Z,21.75
2019-03-22T10:44:57.800Z,23.56
2019-03-22T10:47:27.912Z,21.50
2019-03-22T10:49:57.825Z,21.44
2019-03-22T10:52:27.720Z,20.12
2019-03-22T10:54:57.697Z,22.05
2019-03-22T10:57:27.843Z,21.21
2019-03-22T10:59:57.833Z,22.72
2019-03-22T11:02:27.762Z,24.60
2019-03-22T11:04:57.733Z,24.50
2019-03-22T11:07:27.651Z,25.61
2019-03-22T11:09:57.679Z,24.83
2019-03-22T11:12:27.743Z,24.04
2019-03-22T11:14:57.589Z,24.77
2019-03-22T11:17:27.640Z,26.32
2019-03-22T11:19:57.685Z,27.37
2019-03-22T11:22:27.637Z,26.97
2019-03-22T11:24:57.690Z,27.03
2019-03-22T11:27:27.717Z,27.29
2019-03-22T11:29:57.566Z,25.94
2019-03-22T11:32:27.528Z,26.04
2019-03-22T11:34:57.451Z,23.55
2019-03-22T11:37:27.386Z,23.50
2019-03-22T11:39:57.369Z,24.54
2019-03-22T11:42:27.291Z,24.12
2019-03-22T11:44:57.311Z,24.17
2019-03-22T11:47:27.312Z,24.47
2019-03-22T11:49:57.284Z,21.58
2019-03-22T11:52:27.163Z,19.54
2019-03-22T11:54:57.026Z,19.71
2019-03-22T11:57:27.165Z,21.73
2019-03-22T11:59:57.073Z,22.39
2019-03-22T12:02:26.972Z,19.19
2019-03-22T12:04:56.963Z,20.15
2019-03-22T12:07:26.890Z,20.38
2019-03-22T12:09:56.749Z,19.71
2019-03-22T12:12:26.721Z,19.91
2019-03-22T12:14:56.665Z,19.14
2019-03-22T12:17:26.587Z,16.51
2019-03-22T12:19:56.458Z,16.36
2019-03-22T12:22:26.510Z,15.20
2019-03-22T12:24:56.382Z,14.69
2019-03-22T12:27:36.116Z,13.77
2019-03-22T12:29:58.136Z,12.37
2019-03-22T12:32:32.224Z,11.87
2019-03-22T12:34:59.589Z,11.74
2019-03-22T12:37:29.485Z,12.38
2019-03-22T12:39:59.460Z,13.23
2019-03-22T12:42:29.421Z,13.53
2019-03-22T12:44:59.536Z,13.90
2019-03-22T12:47:29.430Z,14.59
2019-03-22T12:49:59.330Z,15.98
2019-03-22T12:52:31.305Z,15.71
2019-03-22T12:55:00.871Z,16.59
2019-03-22T12:57:30.772Z,16.24
2019-03-22T13:00:00.653Z,16.28
2019-03-22T13:02:30.617Z,16.54
2019-03-22T13:05:00.533Z,17.19
2019-03-22T13:07:30.506Z,17.45
2019-03-22T13:10:00.498Z,16.89
2019-03-22T13:12:30.467Z,17.63
2019-03-22T13:15:00.360Z,17.80
2019-03-22T13:17:30.306Z,17.27
2019-03-22T13:20:00.355Z,18.18
2019-03-22T13:22:30.345Z,17.96
2019-03-22T13:25:00.337Z,18.25
2019-03-22T13:27:30.360Z,20.13
2019-03-22T13:30:00.427Z,20.98
2019-03-22T13:32:30.346Z,21.04
2019-03-22T13:35:00.424Z,20.44
2019-03-22T13:37:30.290Z,20.75
2019-03-22T13:40:00.334Z,20.96
2019-03-22T13:42:30.415Z,20.74
2019-03-22T13:45:00.365Z,20.37
2019-03-22T13:47:30.235Z,18.64
2019-03-22T13:50:00.346Z,18.44
2019-03-22T13:52:30.324Z,18.76
2019-03-22T13:55:00.323Z,17.59
2019-03-22T13:57:30.219Z,16.15
2019-03-22T14:00:00.272Z,15.19
2019-03-22T14:02:30.268Z,14.85
2019-03-22T14:05:00.316Z,14.23
2019-03-22T14:07:30.387Z,13.33
2019-03-22T14:10:00.509Z,12.79
2019-03-22T14:12:37.052Z,12.07
2019-03-22T14:15:02.010Z,11.76
2019-03-22T14:17:31.968Z,12.13
2019-03-22T14:20:10.800Z,13.50
2019-03-22T14:22:33.598Z,15.08
2019-03-22T14:25:03.547Z,16.43
2019-03-22T14:27:33.446Z,16.97
2019-03-22T14:30:03.343Z,16.61
2019-03-22T14:32:33.319Z,17.68
2019-03-22T14:35:03.307Z,17.81
2019-03-22T14:37:33.217Z,17.27
2019-03-22T14:40:03.154Z,16.48
2019-03-22T14:42:33.089Z,16.46
2019-03-22T14:45:02.969Z,15.10
2019-03-22T14:47:32.924Z,14.90
2019-03-22T14:50:02.893Z,14.78
2019-03-22T14:52:32.840Z,14.26
2019-03-22T14:55:03.077Z,14.65
2019-03-22T14:57:32.977Z,13.67
2019-03-22T15:00:02.959Z,13.68
2019-03-22T15:02:32.805Z,13.74
2019-03-22T15:05:02.756Z,12.65
2019-03-22T15:07:32.639Z,12.26
2019-03-22T15:10:02.689Z,12.25
2019-03-22T15:12:32.615Z,11.83
2019-03-22T15:15:10.468Z,11.11
2019-03-22T15:17:59.338Z,10.66
2019-03-22T15:21:06.169Z,10.41
2019-03-22T15:24:02.969Z,10.05
2019-03-22T15:26:49.863Z,9.51
2019-03-22T15:29:46.154Z,9.17
2019-03-22T15:32:32.495Z,8.84
2019-03-22T15:35:20.200Z,8.71
2019-03-22T15:38:15.378Z,8.44
2019-03-22T15:40:45.305Z,8.20
2019-03-22T15:43:15.233Z,8.09
2019-03-22T15:45:45.237Z,8.05
2019-03-22T15:48:15.153Z,7.80
2019-03-22T15:50:45.075Z,7.62
2019-03-22T15:53:14.939Z,7.52
2019-03-22T15:55:45.130Z,7.29
2019-03-22T15:58:15.120Z,7.09
2019-03-22T16:00:45.019Z,6.93
2019-03-22T16:03:15.017Z,6.57
2019-03-22T16:05:44.956Z,6.54
2019-03-22T16:08:14.858Z,6.34
2019-03-22T16:10:44.799Z,6.17
2019-03-22T16:13:14.796Z,6.08
2019-03-22T16:15:44.690Z,6.06
2019-03-22T16:18:14.640Z,5.92
2019-03-22T16:20:44.604Z,5.85
2019-03-22T16:23:14.636Z,5.73
2019-03-22T16:25:44.502Z,5.58
2019-03-22T16:28:14.443Z,5.53
2019-03-22T16:30:44.527Z,5.42
2019-03-22T16:33:14.398Z,5.41
2019-03-22T16:35:44.358Z,5.28
2019-03-22T16:38:14.340Z,5.19
2019-03-22T16:40:44.544Z,5.21
2019-03-22T16:43:14.411Z,5.11
2019-03-22T16:45:44.379Z,5.11
2019-03-22T16:48:14.247Z,5.02
2019-03-22T16:50:44.250Z,4.99
2019-03-22T16:53:14.315Z,4.93
2019-03-22T16:55:44.174Z,4.91
2019-03-22T16:58:14.103Z,4.82
2019-03-22T17:00:44.271Z,4.77
2019-03-22T17:03:14.415Z,4.72
2019-03-22T17:05:44.420Z,4.64
2019-03-22T17:08:14.562Z,4.52
2019-03-22T17:10:44.538Z,4.48
2019-03-22T17:13:14.399Z,4.42
2019-03-22T17:15:44.303Z,4.39
2019-03-22T17:18:14.453Z,4.33
2019-03-22T17:20:44.412Z,4.26
2019-03-22T17:23:14.309Z,4.16
2019-03-22T17:25:46.465Z,4.10
2019-03-22T17:28:16.462Z,4.02
2019-03-22T17:30:46.380Z,3.96
2019-03-22T17:33:16.321Z,3.90
2019-03-22T17:35:46.323Z,3.88
2019-03-22T17:38:16.268Z,3.80
2019-03-22T17:40:46.198Z,3.83
2019-03-22T17:43:16.109Z,3.87
2019-03-22T17:45:45.993Z,3.78
2019-03-22T17:48:16.069Z,3.79
2019-03-22T17:50:45.959Z,3.75
2019-03-22T17:53:15.835Z,3.72
2019-03-22T17:55:45.751Z,3.68
2019-03-22T17:58:15.717Z,3.60
2019-03-22T18:00:46.435Z,3.57
2019-03-22T18:03:16.309Z,3.55
2019-03-22T18:05:46.241Z,3.50
2019-03-22T18:08:16.203Z,3.49
2019-03-22T18:10:46.093Z,3.52
2019-03-22T18:13:16.048Z,3.43
2019-03-22T18:15:45.990Z,3.48
2019-03-22T18:18:15.851Z,3.42
2019-03-22T18:20:45.846Z,3.30
2019-03-22T18:23:15.755Z,3.20
2019-03-22T18:25:45.670Z,3.12
2019-03-22T18:28:15.632Z,3.08
2019-03-22T18:30:45.500Z,2.99
2019-03-22T18:33:15.383Z,3.03
2019-03-22T18:35:45.321Z,3.06
2019-03-22T18:38:15.348Z,3.08
2019-03-22T18:40:45.226Z,3.08
2019-03-22T18:43:15.170Z,3.07
2019-03-22T18:45:45.113Z,3.05
2019-03-22T18:48:14.979Z,3.08
2019-03-22T18:50:44.900Z,3.02
2019-03-22T18:53:14.827Z,2.97
2019-03-22T18:55:44.771Z,2.98
2019-03-22T18:58:14.714Z,2.99
2019-03-22T19:00:44.596Z,2.96
2019-03-22T19:03:14.634Z,2.98
2019-03-22T19:05:44.561Z,2.96
2019-03-22T19:08:14.441Z,2.99
2019-03-22T19:10:44.327Z,2.94
2019-03-22T19:13:14.417Z,2.93
2019-03-22T19:15:44.317Z,2.96
2019-03-22T19:18:14.199Z,2.98
2019-03-22T19:20:44.140Z,3.01
2019-03-22T19:23:14.291Z,3.03
2019-03-22T19:25:44.218Z,3.08
2019-03-22T19:28:14.190Z,3.07
2019-03-22T19:30:44.088Z,3.03
2019-03-22T19:33:14.050Z,3.05
2019-03-22T19:35:43.981Z,3.05
2019-03-22T19:38:13.985Z,3.00
2019-03-22T19:40:43.967Z,3.02
2019-03-22T19:43:13.923Z,3.00
2019-03-22T19:45:43.906Z,2.92
2019-03-22T19:48:13.813Z,2.89
2019-03-22T19:50:43.803Z,2.82
2019-03-22T19:53:13.750Z,2.68
2019-03-22T19:55:43.873Z,2.43
2019-03-22T19:58:13.909Z,2.25
2019-03-22T20:00:43.962Z,2.09
2019-03-22T20:03:13.989Z,2.09
2019-03-22T20:05:43.902Z,2.06
2019-03-22T20:08:14.019Z,1.99
2019-03-22T20:10:43.970Z,1.91
2019-03-22T20:13:13.846Z,1.89
2019-03-22T20:15:43.832Z,1.84
2019-03-22T20:18:13.930Z,1.80
2019-03-22T20:20:43.863Z,1.71
2019-03-22T20:23:13.723Z,1.73
2019-03-22T20:25:43.697Z,1.83
2019-03-22T20:28:13.636Z,1.77
2019-03-22T20:30:43.959Z,1.78
2019-03-22T20:33:13.884Z,1.85
2019-03-22T20:35:43.870Z,1.92
2019-03-22T20:38:13.801Z,1.94
2019-03-22T20:40:43.742Z,1.95
2019-03-22T20:43:13.715Z,2.02
2019-03-22T20:45:43.598Z,1.87
2019-03-22T20:48:13.637Z,1.84
2019-03-22T20:50:43.620Z,1.90
2019-03-22T20:53:13.540Z,1.93
2019-03-22T20:55:43.449Z,1.97
2019-03-22T20:58:13.412Z,2.01
2019-03-22T21:00:43.325Z,2.04
2019-03-22T21:03:13.179Z,1.98
2019-03-22T21:05:43.097Z,1.86
2019-03-22T21:08:12.945Z,1.93
2019-03-22T21:10:42.895Z,1.87
2019-03-22T21:13:12.820Z,1.88
2019-03-22T21:15:42.798Z,1.91
2019-03-22T21:18:12.659Z,1.91
2019-03-22T21:20:42.571Z,1.94
2019-03-22T21:23:12.516Z,1.92
2019-03-22T21:25:42.451Z,1.93
2019-03-22T21:28:12.598Z,1.91
2019-03-22T21:30:42.474Z,1.94
2019-03-22T21:33:12.508Z,1.97
2019-03-22T21:35:42.453Z,1.94
2019-03-22T21:38:15.754Z,1.99
2019-03-22T21:40:45.758Z,2.01
2019-03-22T21:43:15.746Z,2.07
2019-03-22T21:45:45.718Z,2.12
2019-03-22T21:48:17.786Z,2.22
2019-03-22T21:50:47.725Z,2.26
2019-03-22T21:53:17.680Z,2.32
2019-03-22T21:55:47.604Z,2.44
2019-03-22T21:58:17.533Z,2.49
2019-03-22T22:00:47.609Z,2.64
2019-03-22T22:03:17.480Z,2.87
2019-03-22T22:05:48.268Z,3.01
2019-03-22T22:08:18.196Z,3.11
2019-03-22T22:10:48.113Z,3.26
2019-03-22T22:13:19.291Z,3.37
2019-03-22T22:15:49.177Z,3.49
2019-03-22T22:18:19.027Z,3.58
2019-03-22T22:20:49.013Z,3.63
2019-03-22T22:23:19.046Z,3.69
2019-03-22T22:25:48.955Z,3.72
2019-03-22T22:28:18.904Z,3.76
2019-03-22T22:30:48.847Z,3.77
2019-03-22T22:33:18.715Z,3.77
2019-03-22T22:35:58.270Z,3.79
2019-03-22T22:38:20.274Z,3.84
2019-03-22T22:40:50.181Z,3.87
2019-03-22T22:43:20.115Z,3.87
2019-03-22T22:45:50.099Z,3.85
2019-03-22T22:48:19.965Z,3.90
2019-03-22T22:50:49.927Z,3.88
2019-03-22T22:53:19.878Z,3.90
2019-03-22T22:55:49.927Z,3.91
2019-03-22T22:58:19.818Z,3.90
2019-03-22T23:00:50.032Z,3.89
2019-03-22T23:03:20.102Z,3.87
2019-03-22T23:05:49.968Z,3.91
2019-03-22T23:08:19.917Z,3.86
2019-03-22T23:10:49.869Z,3.88
2019-03-22T23:13:19.795Z,3.90
2019-03-22T23:15:49.803Z,3.88
2019-03-22T23:18:19.733Z,3.85
2019-03-22T23:20:49.662Z,3.84
2019-03-22T23:23:19.535Z,3.81
2019-03-22T23:25:49.483Z,3.81
2019-03-22T23:28:19.398Z,3.78
2019-03-22T23:30:49.260Z,3.77
2019-03-22T23:33:19.193Z,3.79
2019-03-22T23:35:49.217Z,3.74
2019-03-22T23:38:19.094Z,3.72
2019-03-22T23:40:49.023Z,3.73
2019-03-22T23:43:19.134Z,3.69
2019-03-22T23:45:49.025Z,3.67
2019-03-22T23:48:19.032Z,3.71
2019-03-22T23:50:48.970Z,3.68
2019-03-22T23:53:18.820Z,3.67
2019-03-22T23:55:48.833Z,3.64
2019-03-22T23:58:18.818Z,3.61
